createdAt,value
2023-04-17T00:01:56.664Z,4.35
2023-04-17T00:04:24.027Z,4.47
2023-04-17T00:06:53.915Z,4.18
2023-04-17T00:09:20.959Z,4.65
2023-04-17T00:11:48.188Z,5.45
2023-04-17T00:14:15.285Z,4.93
2023-04-17T00:16:42.311Z,7.03
2023-04-17T00:19:09.443Z,6.28
2023-04-17T00:21:36.442Z,5.70
2023-04-17T00:24:03.453Z,5.88
2023-04-17T00:26:32.361Z,5.65
2023-04-17T00:28:59.317Z,5.32
2023-04-17T00:31:26.283Z,5.22
2023-04-17T00:33:53.450Z,4.57
2023-04-17T00:36:20.626Z,5.75
2023-04-17T00:38:47.764Z,4.63
2023-04-17T00:41:14.744Z,6.05
2023-04-17T00:43:41.842Z,5.13
2023-04-17T00:46:10.062Z,4.90
2023-04-17T00:48:37.984Z,5.93
2023-04-17T00:51:05.050Z,4.65
2023-04-17T00:53:32.583Z,5.80
2023-04-17T00:56:03.528Z,5.32
2023-04-17T00:58:31.049Z,6.82
2023-04-17T01:01:01.344Z,5.65
2023-04-17T01:03:32.487Z,6.60
2023-04-17T01:06:00.001Z,5.60
2023-04-17T01:08:29.561Z,5.65
2023-04-17T01:10:56.634Z,7.30
2023-04-17T01:13:23.628Z,7.75
2023-04-17T01:15:51.987Z,7.85
2023-04-17T01:18:19.068Z,7.70
2023-04-17T01:20:46.045Z,6.55
2023-04-17T01:23:13.637Z,6.03
2023-04-17T01:25:40.963Z,7.20
2023-04-17T01:28:08.902Z,8.05
2023-04-17T01:30:37.224Z,6.55
2023-04-17T01:33:07.408Z,5.78
2023-04-17T01:35:34.370Z,7.63
2023-04-17T01:38:01.389Z,7.35
2023-04-17T01:40:30.979Z,7.63
2023-04-17T01:42:58.351Z,7.50
2023-04-17T01:45:25.381Z,7.32
2023-04-17T01:47:52.537Z,7.72
2023-04-17T01:50:19.786Z,8.43
2023-04-17T01:52:47.444Z,7.68
2023-04-17T01:55:17.082Z,6.28
2023-04-17T01:57:44.029Z,6.10
2023-04-17T02:00:11.313Z,6.30
2023-04-17T02:02:45.926Z,5.35
2023-04-17T02:05:16.152Z,5.50
2023-04-17T02:07:44.190Z,5.57
2023-04-17T02:10:11.235Z,5.18
2023-04-17T02:12:38.299Z,5.63
2023-04-17T02:15:05.907Z,5.40
2023-04-17T02:17:33.363Z,8.07
2023-04-17T02:20:00.534Z,8.13
2023-04-17T02:22:27.566Z,8.07
2023-04-17T02:24:54.433Z,8.80
2023-04-17T02:27:22.173Z,7.07
2023-04-17T02:29:49.042Z,6.43
2023-04-17T02:32:17.325Z,7.25
2023-04-17T02:34:45.219Z,5.15
2023-04-17T02:37:17.288Z,9.32
2023-04-17T02:39:44.197Z,9.60
2023-04-17T02:42:14.974Z,7.10
2023-04-17T02:44:41.937Z,6.53
2023-04-17T02:47:09.104Z,7.15
2023-04-17T02:49:36.113Z,6.68
2023-04-17T02:52:03.087Z,7.10
2023-04-17T02:54:30.310Z,7.32
2023-04-17T02:56:58.670Z,6.70
2023-04-17T02:59:29.446Z,7.88
2023-04-17T03:01:59.860Z,5.90
2023-04-17T03:04:30.162Z,6.38
2023-04-17T03:06:57.134Z,6.18
2023-04-17T03:09:25.000Z,5.82
2023-04-17T03:11:52.695Z,5.30
2023-04-17T03:14:19.586Z,6.70
2023-04-17T03:16:46.532Z,7.28
2023-04-17T03:19:13.727Z,6.65
2023-04-17T03:21:41.062Z,5.85
2023-04-17T03:24:08.127Z,7.63
2023-04-17T03:26:35.438Z,8.32
2023-04-17T03:29:07.588Z,7.05
2023-04-17T03:31:34.488Z,8.23
2023-04-17T03:34:01.477Z,7.18
2023-04-17T03:36:31.118Z,8.57
2023-04-17T03:39:00.854Z,7.70
2023-04-17T03:41:31.309Z,6.53
2023-04-17T03:43:58.420Z,6.72
2023-04-17T03:46:25.590Z,6.43
2023-04-17T03:48:53.503Z,6.10
2023-04-17T03:51:20.470Z,6.32
2023-04-17T03:53:48.785Z,7.05
2023-04-17T03:56:15.845Z,6.88
2023-04-17T03:58:45.241Z,6.60
2023-04-17T04:01:15.620Z,7.05
2023-04-17T04:04:00.543Z,5.82
2023-04-17T04:06:31.409Z,6.30
2023-04-17T04:09:02.100Z,5.45
2023-04-17T04:11:32.382Z,4.38
2023-04-17T04:13:59.265Z,6.90
2023-04-17T04:16:28.999Z,6.30
2023-04-17T04:19:05.028Z,6.00
2023-04-17T04:21:31.974Z,9.25
2023-04-17T04:23:59.905Z,9.43
2023-04-17T04:26:28.428Z,8.20
2023-04-17T04:28:56.775Z,6.75
2023-04-17T04:31:32.551Z,6.78
2023-04-17T04:34:02.362Z,8.00
2023-04-17T04:36:30.170Z,7.88
2023-04-17T04:39:20.980Z,7.60
2023-04-17T04:44:20.126Z,9.35
2023-04-17T04:46:49.617Z,8.68
2023-04-17T04:49:16.732Z,7.50
2023-04-17T04:51:46.182Z,9.05
2023-04-17T04:54:13.670Z,8.05
2023-04-17T04:56:47.864Z,7.47
2023-04-17T04:59:16.126Z,7.25
2023-04-17T05:01:49.633Z,7.15
2023-04-17T05:04:19.961Z,6.55
2023-04-17T05:06:49.424Z,6.65
2023-04-17T05:09:17.300Z,6.82
2023-04-17T05:11:45.354Z,7.00
2023-04-17T05:14:12.236Z,5.88
2023-04-17T05:16:40.500Z,6.20
2023-04-17T05:19:09.308Z,6.95
2023-04-17T05:21:52.334Z,6.32
2023-04-17T05:24:20.936Z,6.55
2023-04-17T05:26:49.519Z,6.45
2023-04-17T05:29:16.457Z,5.05
2023-04-17T05:31:43.552Z,6.45
2023-04-17T05:34:23.750Z,7.28
2023-04-17T05:36:50.822Z,7.72
2023-04-17T05:39:18.277Z,6.63
2023-04-17T05:41:45.323Z,6.93
2023-04-17T05:44:12.316Z,7.32
2023-04-17T05:46:39.239Z,6.40
2023-04-17T05:49:06.419Z,7.75
2023-04-17T05:51:33.628Z,7.32
2023-04-17T05:54:03.153Z,8.18
2023-04-17T05:56:31.438Z,8.60
2023-04-17T05:58:59.535Z,8.27
2023-04-17T06:01:29.859Z,7.70
2023-04-17T06:04:01.518Z,6.78
2023-04-17T06:06:29.077Z,8.18
2023-04-17T06:08:58.365Z,6.32
2023-04-17T06:11:25.383Z,6.10
2023-04-17T06:13:53.265Z,6.90
2023-04-17T06:16:22.015Z,6.18
2023-04-17T06:18:49.383Z,6.50
2023-04-17T06:21:16.313Z,4.90
2023-04-17T06:23:45.612Z,7.10
2023-04-17T06:26:12.718Z,6.35
2023-04-17T06:28:40.486Z,6.70
2023-04-17T06:31:07.805Z,6.55
2023-04-17T06:33:34.862Z,8.85
2023-04-17T06:36:02.806Z,6.88
2023-04-17T06:38:48.392Z,7.38
2023-04-17T06:41:17.431Z,8.48
2023-04-17T06:43:44.541Z,10.43
2023-04-17T06:46:17.432Z,9.50
2023-04-17T06:48:44.406Z,7.88
2023-04-17T06:51:11.356Z,8.68
2023-04-17T06:53:38.441Z,8.85
2023-04-17T06:56:05.853Z,8.73
2023-04-17T06:58:33.212Z,8.20
2023-04-17T07:01:00.336Z,7.95
2023-04-17T07:03:29.405Z,9.25
2023-04-17T07:05:56.540Z,9.48
2023-04-17T07:08:23.604Z,8.50
2023-04-17T07:10:50.620Z,8.23
2023-04-17T07:13:17.536Z,7.78
2023-04-17T07:15:44.622Z,8.02
2023-04-17T07:18:11.715Z,9.75
2023-04-17T07:20:38.791Z,11.80
2023-04-17T07:23:05.811Z,10.52
2023-04-17T07:25:32.910Z,8.75
2023-04-17T07:27:59.910Z,7.90
2023-04-17T07:30:29.948Z,10.45
2023-04-17T07:32:57.003Z,10.82
2023-04-17T07:35:26.880Z,9.52
2023-04-17T07:37:53.902Z,9.02
2023-04-17T07:40:20.919Z,8.85
2023-04-17T07:42:48.021Z,10.07
2023-04-17T07:45:18.074Z,10.35
2023-04-17T07:47:45.040Z,10.73
2023-04-17T07:50:12.247Z,8.80
2023-04-17T07:52:39.369Z,9.35
2023-04-17T07:55:07.288Z,8.70
2023-04-17T07:57:34.289Z,10.07
2023-04-17T08:00:02.053Z,8.32
2023-04-17T08:02:40.672Z,7.93
2023-04-17T08:05:08.468Z,8.93
2023-04-17T08:07:36.216Z,8.73
2023-04-17T08:10:04.916Z,9.75
2023-04-17T08:12:32.023Z,8.48
2023-04-17T08:14:59.473Z,9.82
2023-04-17T08:17:30.194Z,11.25
2023-04-17T08:19:57.688Z,11.85
2023-04-17T08:22:26.292Z,10.40
2023-04-17T08:24:57.918Z,10.05
2023-04-17T08:27:25.998Z,13.20
2023-04-17T08:29:55.442Z,10.32
2023-04-17T08:32:22.498Z,11.25
2023-04-17T08:34:49.629Z,10.38
2023-04-17T08:37:16.587Z,10.88
2023-04-17T08:39:43.824Z,10.30
2023-04-17T08:42:14.768Z,10.95
2023-04-17T08:44:45.035Z,9.82
2023-04-17T08:47:16.451Z,10.68
2023-04-17T08:49:44.086Z,10.03
2023-04-17T08:52:11.615Z,9.90
2023-04-17T08:54:39.623Z,11.38
2023-04-17T08:57:07.014Z,12.18
2023-04-17T08:59:34.302Z,12.18
2023-04-17T09:02:06.963Z,12.80
2023-04-17T09:04:42.780Z,11.52
2023-04-17T09:07:16.775Z,13.38
2023-04-17T09:10:06.973Z,11.82
2023-04-17T09:12:34.435Z,11.10
2023-04-17T09:15:15.687Z,10.27
2023-04-17T09:17:42.863Z,11.15
2023-04-17T09:20:12.229Z,12.10
2023-04-17T09:22:41.004Z,12.10
2023-04-17T09:25:23.299Z,11.50
2023-04-17T09:27:50.407Z,12.70
2023-04-17T09:30:17.524Z,13.70
2023-04-17T09:32:47.575Z,13.88
2023-04-17T09:35:25.754Z,13.23
2023-04-17T09:37:59.287Z,11.98
2023-04-17T09:40:28.552Z,11.98
2023-04-17T09:43:08.996Z,12.05
2023-04-17T09:45:39.803Z,11.75
2023-04-17T09:48:09.349Z,12.45
2023-04-17T09:50:38.686Z,10.75
2023-04-17T09:53:07.757Z,10.55
2023-04-17T09:55:36.976Z,12.48
2023-04-17T09:58:06.408Z,10.95
2023-04-17T10:00:33.624Z,11.20
2023-04-17T10:03:00.953Z,9.50
2023-04-17T10:05:31.473Z,10.65
2023-04-17T10:08:01.557Z,9.18
2023-04-17T10:10:31.360Z,9.98
2023-04-17T10:13:00.632Z,9.95
2023-04-17T10:15:28.546Z,9.98
2023-04-17T10:17:58.886Z,9.35
2023-04-17T10:20:28.508Z,8.35
2023-04-17T10:22:56.360Z,8.05
2023-04-17T10:25:25.335Z,8.93
2023-04-17T10:27:53.563Z,8.45
2023-04-17T10:30:22.888Z,9.25
2023-04-17T10:33:15.738Z,9.27
2023-04-17T10:35:42.899Z,8.70
2023-04-17T10:38:11.450Z,9.38
2023-04-17T10:40:39.308Z,8.43
2023-04-17T10:43:14.973Z,7.75
2023-04-17T10:46:17.107Z,7.40
2023-04-17T10:49:12.287Z,7.80
2023-04-17T10:51:47.272Z,9.43
2023-04-17T10:54:17.217Z,9.85
2023-04-17T10:56:48.651Z,10.07
2023-04-17T10:59:17.774Z,10.27
2023-04-17T11:01:47.952Z,7.97
2023-04-17T11:04:46.547Z,7.53
2023-04-17T11:07:21.470Z,7.43
2023-04-17T11:10:00.748Z,6.70
2023-04-17T11:12:31.998Z,8.02
2023-04-17T11:15:04.177Z,8.30
2023-04-17T11:17:54.456Z,8.55
2023-04-17T11:22:53.483Z,7.40
2023-04-17T11:25:27.557Z,6.80
2023-04-17T11:28:04.768Z,7.35
2023-04-17T11:30:45.560Z,6.13
2023-04-17T11:33:14.885Z,6.65
2023-04-17T11:36:26.433Z,7.50
2023-04-17T11:38:55.360Z,7.03
2023-04-17T11:41:22.574Z,8.50
2023-04-17T11:43:52.059Z,8.05
2023-04-17T11:46:19.588Z,7.55
2023-04-17T11:48:50.207Z,7.55
2023-04-17T11:51:19.032Z,6.05
2023-04-17T11:53:50.274Z,7.60
2023-04-17T11:56:19.015Z,7.32
2023-04-17T11:58:50.549Z,7.13
2023-04-17T12:01:18.863Z,7.18
2023-04-17T12:03:47.885Z,7.70
2023-04-17T12:06:18.440Z,7.57
2023-04-17T12:08:53.294Z,7.25
2023-04-17T12:11:26.252Z,6.75
2023-04-17T12:13:54.619Z,6.55
2023-04-17T12:16:24.733Z,7.15
2023-04-17T12:18:52.514Z,8.23
2023-04-17T12:21:24.122Z,7.75
2023-04-17T12:23:52.057Z,7.82
2023-04-17T12:26:19.263Z,8.20
2023-04-17T12:28:46.427Z,7.72
2023-04-17T12:31:13.666Z,7.85
2023-04-17T12:33:40.558Z,6.40
2023-04-17T12:36:08.129Z,7.93
2023-04-17T12:38:38.077Z,7.13
2023-04-17T12:41:58.258Z,6.80
2023-04-17T12:44:25.635Z,6.25
2023-04-17T12:47:01.436Z,5.57
2023-04-17T12:49:54.285Z,5.68
2023-04-17T12:56:36.375Z,5.85
2023-04-17T12:59:42.847Z,6.40
2023-04-17T13:02:19.803Z,6.68
2023-04-17T13:04:53.156Z,6.10
2023-04-17T13:10:07.509Z,5.80
2023-04-17T13:12:41.380Z,4.97
2023-04-17T13:15:09.169Z,4.38
2023-04-17T13:17:36.447Z,4.47
2023-04-17T13:20:03.659Z,4.20
2023-04-17T13:22:30.604Z,4.90
2023-04-17T13:24:59.739Z,4.32
2023-04-17T13:27:27.065Z,4.78
2023-04-17T13:29:56.755Z,4.53
2023-04-17T13:32:23.984Z,4.63
2023-04-17T13:34:51.159Z,3.70
2023-04-17T13:37:20.670Z,4.40
2023-04-17T13:39:50.007Z,4.72
2023-04-17T13:42:18.885Z,4.68
2023-04-17T13:44:45.912Z,5.25
2023-04-17T13:47:13.542Z,5.10
2023-04-17T13:49:41.218Z,4.88
2023-04-17T13:52:11.236Z,4.72
2023-04-17T13:54:38.285Z,4.35
2023-04-17T13:57:06.583Z,4.68
2023-04-17T13:59:36.472Z,4.90
2023-04-17T14:02:04.049Z,5.18
2023-04-17T14:04:34.129Z,4.70
2023-04-17T14:07:01.238Z,4.50
2023-04-17T14:09:31.462Z,5.00
2023-04-17T14:12:02.375Z,4.82
2023-04-17T14:14:29.386Z,4.60
2023-04-17T14:16:56.927Z,3.65
2023-04-17T14:19:26.474Z,4.72
2023-04-17T14:21:55.055Z,4.50
2023-04-17T14:24:25.002Z,3.75
2023-04-17T14:27:01.959Z,4.25
2023-04-17T14:30:47.610Z,3.83
2023-04-17T14:33:35.121Z,3.03
2023-04-17T14:36:03.924Z,4.25
2023-04-17T14:38:32.505Z,4.90
2023-04-17T14:41:04.929Z,4.15
2023-04-17T14:43:35.090Z,3.83
2023-04-17T14:46:02.454Z,3.88
2023-04-17T14:48:32.696Z,3.15
2023-04-17T14:51:12.527Z,4.60
2023-04-17T14:53:42.718Z,3.60
2023-04-17T14:56:09.925Z,3.75
2023-04-17T14:58:38.300Z,3.83
2023-04-17T15:01:05.761Z,3.22
2023-04-17T15:03:33.086Z,3.60
2023-04-17T15:06:02.569Z,4.22
2023-04-17T15:08:31.382Z,3.38
2023-04-17T15:10:58.988Z,3.55
2023-04-17T15:13:31.495Z,4.18
2023-04-17T15:15:58.642Z,3.67
2023-04-17T15:18:29.008Z,4.07
2023-04-17T15:20:56.191Z,4.65
2023-04-17T15:23:25.412Z,3.92
2023-04-17T15:25:54.329Z,4.28
2023-04-17T15:28:24.049Z,4.00
2023-04-17T15:30:50.945Z,3.95
2023-04-17T15:33:18.041Z,4.05
2023-04-17T15:35:45.229Z,3.95
2023-04-17T15:38:12.436Z,3.30
2023-04-17T15:40:39.442Z,3.40
2023-04-17T15:43:07.821Z,3.25
2023-04-17T15:45:41.143Z,3.67
2023-04-17T15:48:15.639Z,3.50
2023-04-17T15:50:42.582Z,3.70
2023-04-17T15:53:10.006Z,3.75
2023-04-17T15:55:38.615Z,3.78
2023-04-17T15:58:05.882Z,3.60
2023-04-17T16:00:34.117Z,3.45
2023-04-17T16:03:01.326Z,4.38
2023-04-17T16:05:30.244Z,4.88
2023-04-17T16:07:57.692Z,4.63
2023-04-17T16:10:24.833Z,5.05
2023-04-17T16:12:51.833Z,4.65
2023-04-17T16:15:19.160Z,4.57
2023-04-17T16:17:48.778Z,4.55
2023-04-17T16:20:16.762Z,4.10
2023-04-17T16:22:44.014Z,3.75
2023-04-17T16:25:12.541Z,4.20
2023-04-17T16:27:40.475Z,3.53
2023-04-17T16:30:08.568Z,3.90
2023-04-17T16:32:35.762Z,3.90
2023-04-17T16:35:02.792Z,6.13
2023-04-17T16:37:29.977Z,4.78
2023-04-17T16:39:57.030Z,4.00
2023-04-17T16:42:26.340Z,4.53
2023-04-17T16:44:53.490Z,3.47
2023-04-17T16:47:33.270Z,4.15
2023-04-17T16:50:00.722Z,3.72
2023-04-17T16:52:30.821Z,3.28
2023-04-17T16:54:59.083Z,3.78
2023-04-17T16:57:26.055Z,3.70
2023-04-17T16:59:52.980Z,3.97
2023-04-17T17:02:20.073Z,3.38
2023-04-17T17:04:47.267Z,4.38
2023-04-17T17:07:17.105Z,3.45
2023-04-17T17:09:44.032Z,3.17
2023-04-17T17:12:11.301Z,3.08
2023-04-17T17:14:38.308Z,2.70
2023-04-17T17:17:05.360Z,3.63
2023-04-17T17:19:32.614Z,3.13
2023-04-17T17:21:59.660Z,2.83
2023-04-17T17:24:26.778Z,2.92
2023-04-17T17:26:53.793Z,3.10
2023-04-17T17:29:20.747Z,3.03
2023-04-17T17:31:47.892Z,3.40
2023-04-17T17:34:26.219Z,3.45
2023-04-17T17:36:53.987Z,2.97
2023-04-17T17:39:22.271Z,3.72
2023-04-17T17:41:49.743Z,3.67
2023-04-17T17:44:16.942Z,3.45
2023-04-17T17:46:44.321Z,3.47
2023-04-17T17:49:11.429Z,2.92
2023-04-17T17:51:38.630Z,3.10
2023-04-17T17:54:05.811Z,3.70
2023-04-17T17:56:33.034Z,2.75
2023-04-17T17:59:00.346Z,2.95
2023-04-17T18:01:30.572Z,3.20
2023-04-17T18:03:58.158Z,3.33
2023-04-17T18:06:27.904Z,3.53
2023-04-17T18:08:54.999Z,2.45
2023-04-17T18:11:23.036Z,2.92
2023-04-17T18:13:52.882Z,2.40
2023-04-17T18:16:20.650Z,2.47
2023-04-17T18:18:51.053Z,2.20
2023-04-17T18:21:29.966Z,2.35
2023-04-17T18:23:57.844Z,2.35
2023-04-17T18:26:24.986Z,2.85
2023-04-17T18:28:52.179Z,2.55
2023-04-17T18:31:21.906Z,2.97
2023-04-17T18:33:51.637Z,2.90
2023-04-17T18:36:18.927Z,2.35
2023-04-17T18:38:46.100Z,2.55
2023-04-17T18:41:16.053Z,2.03
2023-04-17T18:43:43.229Z,1.90
2023-04-17T18:50:39.574Z,1.80
2023-04-17T18:56:06.837Z,2.40
2023-04-17T18:58:40.586Z,2.17
2023-04-17T19:01:10.402Z,2.30
2023-04-17T19:03:38.727Z,2.28
2023-04-17T19:06:06.748Z,1.88
2023-04-17T19:08:42.782Z,2.47
2023-04-17T19:12:15.622Z,2.03
2023-04-17T19:14:42.652Z,1.77
2023-04-17T19:17:09.635Z,1.92
2023-04-17T19:19:40.076Z,1.77
2023-04-17T19:22:07.160Z,1.77
2023-04-17T19:24:37.407Z,1.95
2023-04-17T19:27:04.634Z,2.00
2023-04-17T19:29:31.902Z,1.92
2023-04-17T19:32:15.376Z,2.65
2023-04-17T19:35:10.625Z,1.92
2023-04-17T19:37:40.157Z,2.78
2023-04-17T19:40:21.219Z,2.28
2023-04-17T19:42:51.698Z,2.80
2023-04-17T19:45:20.660Z,2.10
2023-04-17T19:48:01.105Z,2.38
2023-04-17T19:55:33.726Z,2.60
2023-04-17T20:14:33.122Z,2.38
2023-04-17T20:24:46.790Z,2.30
2023-04-17T20:27:29.072Z,2.38
2023-04-17T20:30:01.299Z,2.72
2023-04-17T20:35:17.569Z,1.58
2023-04-17T20:37:46.722Z,2.30
2023-04-17T20:40:37.217Z,2.33
2023-04-17T20:43:07.084Z,2.92
2023-04-17T20:45:34.448Z,3.15
2023-04-17T20:48:02.156Z,2.28
2023-04-17T20:50:30.917Z,2.47
2023-04-17T20:53:01.292Z,3.20
2023-04-17T20:56:01.871Z,2.95
2023-04-17T20:58:32.210Z,2.13
2023-04-17T21:01:01.635Z,2.78
2023-04-17T21:03:33.180Z,2.63
2023-04-17T21:06:00.725Z,2.05
2023-04-17T21:08:30.300Z,2.70
2023-04-17T21:13:42.873Z,2.33
2023-04-17T21:18:56.899Z,2.97
2023-04-17T21:21:23.929Z,2.50
2023-04-17T21:23:51.758Z,2.30
2023-04-17T21:26:18.843Z,2.55
2023-04-17T21:28:45.793Z,3.00
2023-04-17T21:31:15.902Z,2.78
2023-04-17T21:33:42.956Z,2.08
2023-04-17T21:36:09.916Z,2.03
2023-04-17T21:38:36.994Z,2.67
2023-04-17T21:41:06.726Z,2.88
2023-04-17T21:43:33.713Z,1.63
2023-04-17T21:46:01.080Z,2.03
2023-04-17T21:48:28.015Z,2.10
2023-04-17T21:51:03.510Z,2.53
2023-04-17T21:53:31.750Z,2.83
2023-04-17T21:55:58.702Z,3.15
2023-04-17T21:58:25.954Z,2.90
2023-04-17T22:00:53.910Z,3.00
2023-04-17T22:03:22.151Z,4.10
2023-04-17T22:05:54.235Z,3.80
2023-04-17T22:08:21.305Z,3.53
2023-04-17T22:10:48.260Z,3.45
2023-04-17T22:13:16.106Z,2.70
2023-04-17T22:15:44.306Z,3.35
2023-04-17T22:18:11.190Z,3.25
2023-04-17T22:20:38.174Z,3.22
2023-04-17T22:23:05.204Z,3.50
2023-04-17T22:25:32.136Z,3.63
2023-04-17T22:27:59.021Z,2.80
2023-04-17T22:30:25.994Z,3.38
2023-04-17T22:32:52.986Z,3.97
2023-04-17T22:35:20.102Z,3.28
2023-04-17T22:37:47.149Z,3.72
2023-04-17T22:40:14.354Z,3.63
2023-04-17T22:42:41.830Z,3.60
2023-04-17T22:45:09.194Z,3.97
2023-04-17T22:47:36.312Z,4.18
2023-04-17T22:50:03.552Z,3.40
2023-04-17T22:52:30.553Z,4.53
2023-04-17T22:54:57.528Z,4.35
2023-04-17T22:57:24.565Z,3.10
2023-04-17T22:59:51.492Z,4.40
2023-04-17T23:02:18.443Z,3.97
2023-04-17T23:04:45.538Z,3.78
2023-04-17T23:07:12.454Z,4.55
2023-04-17T23:09:39.333Z,4.38
2023-04-17T23:12:07.235Z,4.82
2023-04-17T23:14:34.764Z,3.97
2023-04-17T23:17:01.737Z,4.18
2023-04-17T23:19:28.687Z,4.55
2023-04-17T23:21:55.978Z,3.95
2023-04-17T23:24:22.938Z,4.70
2023-04-17T23:26:49.898Z,4.20
2023-04-17T23:29:16.977Z,3.63
2023-04-17T23:31:45.612Z,3.42
2023-04-17T23:34:12.810Z,3.88
2023-04-17T23:36:40.936Z,3.90
2023-04-17T23:39:07.930Z,4.15
2023-04-17T23:41:35.391Z,5.65
2023-04-17T23:44:03.973Z,5.53
2023-04-17T23:46:31.032Z,4.78
2023-04-17T23:48:57.995Z,4.75
2023-04-17T23:51:25.017Z,4.35
2023-04-17T23:53:51.989Z,5.18
2023-04-17T23:56:22.122Z,4.88
2023-04-17T23:58:49.122Z,3.55
